Time;durP1;ratioP1;P1;durP2;ratioP2;P2;SDS_P1;SDS_P2;PMS_P1;PMS_P2;Temp;Humidity;BMP_temperature;BMP_pressure;BME280_temperature;BME280_humidity;BME280_pressure;Samples;Min_cycle;Max_cycle;Signal;HPM_P1;HPM_P2
2021/12/20 00:00:57;;;;;;;27.45;14.82;;;;;;;3.78;100.00;101484.78;5048554;28;20039;-73
2021/12/20 00:03:23;;;;;;;26.60;13.70;;;;;;;3.78;100.00;101482.03;5045736;28;20029;-73
2021/12/20 00:05:48;;;;;;;26.35;14.32;;;;;;;3.78;100.00;101484.78;5051107;28;20024;-73
2021/12/20 00:08:14;;;;;;;24.75;13.68;;;;;;;3.78;100.00;101483.97;5040926;28;20029;-74
2021/12/20 00:10:39;;;;;;;25.23;13.50;;;;;;;3.79;100.00;101481.00;5073724;28;20039;-74
2021/12/20 00:13:05;;;;;;;23.98;13.48;;;;;;;3.79;100.00;101470.00;5049376;28;20537;-73
2021/12/20 00:15:30;;;;;;;25.52;13.55;;;;;;;3.80;100.00;101481.84;5042388;28;20043;-73
2021/12/20 00:17:56;;;;;;;25.30;13.05;;;;;;;3.79;100.00;101475.50;5062600;28;20028;-73
2021/12/20 00:20:21;;;;;;;27.90;14.30;;;;;;;3.78;100.00;101478.47;5047747;28;20024;-73
2021/12/20 00:22:47;;;;;;;24.52;13.60;;;;;;;3.79;100.00;101470.00;5073016;28;20552;-73
2021/12/20 00:25:12;;;;;;;24.05;13.23;;;;;;;3.79;100.00;101475.50;5051129;28;20032;-73
2021/12/20 00:27:38;;;;;;;23.70;13.20;;;;;;;3.79;100.00;101475.50;5064489;28;20028;-73
2021/12/20 00:30:05;;;;;;;24.90;12.88;;;;;;;3.79;100.00;101467.25;5046256;28;20136;-73
2021/12/20 00:32:31;;;;;;;24.80;13.32;;;;;;;3.81;100.00;101467.84;5048001;28;20047;-73
2021/12/20 00:34:56;;;;;;;26.25;14.18;;;;;;;3.81;100.00;101467.84;5043878;28;20032;-74
2021/12/20 00:40:21;;;;;;;25.38;13.57;;;;;;;3.81;100.00;101464.25;5059245;28;20028;-73
2021/12/20 00:43:06;;;;;;;23.27;13.52;;;;;;;3.81;100.00;101467.00;5066868;28;20036;-73
2021/12/20 00:45:34;;;;;;;23.92;13.40;;;;;;;3.81;100.00;101465.09;5048407;28;20046;-73
2021/12/20 00:47:59;;;;;;;22.80;13.88;;;;;;;3.80;100.00;101471.69;5041661;28;20035;-74
2021/12/20 00:50:25;;;;;;;24.33;12.90;;;;;;;3.83;100.00;101469.56;5055763;28;20075;-73
2021/12/20 00:52:50;;;;;;;27.38;14.48;;;;;;;3.83;100.00;101459.41;5024839;28;20550;-73
2021/12/20 00:55:17;;;;;;;22.23;13.15;;;;;;;3.81;100.00;101467.00;5028130;28;20028;-73
2021/12/20 00:57:46;;;;;;;22.73;13.57;;;;;;;3.81;100.00;101464.25;5046495;28;20036;-73
2021/12/20 01:00:12;;;;;;;25.33;13.73;;;;;;;3.83;100.00;101469.56;5027194;28;20032;-74
2021/12/20 01:02:38;;;;;;;25.67;13.77;;;;;;;3.81;100.00;101469.75;5054507;28;20060;-73
2021/12/20 01:05:04;;;;;;;23.35;13.68;;;;;;;3.80;100.00;101463.44;5035973;28;20037;-74
2021/12/20 01:07:30;;;;;;;21.85;12.93;;;;;;;3.79;100.00;101470.00;5060672;28;20036;-73
2021/12/20 01:10:02;;;;;;;21.33;12.30;;;;;;;3.80;100.00;101465.34;5047484;28;20055;-74
2021/12/20 01:12:33;;;;;;;24.15;12.90;;;;;;;3.78;100.00;101462.81;5049015;28;20027;-73
2021/12/20 01:15:00;;;;;;;23.88;13.27;;;;;;;3.75;100.00;101455.03;5082298;28;20028;-74
2021/12/20 01:17:26;;;;;;;22.25;12.90;;;;;;;3.75;100.00;101465.19;5058553;28;20119;-73
2021/12/20 01:19:51;;;;;;;26.00;13.23;;;;;;;3.74;100.00;101461.59;5064802;28;20488;-74
2021/12/20 01:22:17;;;;;;;23.35;12.85;;;;;;;3.73;100.00;101465.41;5061390;28;20091;-73
2021/12/20 01:24:42;;;;;;;23.52;13.52;;;;;;;3.74;100.00;101464.34;5039253;28;20036;-73
2021/12/20 01:27:08;;;;;;;21.77;12.85;;;;;;;3.75;100.00;101470.66;5097248;28;20031;-73
2021/12/20 01:29:33;;;;;;;22.42;12.73;;;;;;;3.72;100.00;101466.47;5062322;28;20028;-74
2021/12/20 01:31:59;;;;;;;20.42;11.93;;;;;;;3.72;100.00;101463.72;5012828;28;20090;-73
2021/12/20 01:34:24;;;;;;;20.52;12.10;;;;;;;3.71;100.00;101470.28;5015950;28;20031;-73
2021/12/20 01:36:50;;;;;;;20.13;11.07;;;;;;;3.71;100.00;101462.06;5046291;28;20057;-73
2021/12/20 01:39:15;;;;;;;20.10;11.40;;;;;;;3.66;100.00;101464.63;5075139;28;20032;-73
2021/12/20 01:41:41;;;;;;;17.42;10.77;;;;;;;3.66;100.00;101464.63;5052428;28;20040;-73
2021/12/20 01:44:07;;;;;;;19.38;10.75;;;;;;;3.63;100.00;101459.59;5058903;28;20036;-73
2021/12/20 01:46:33;;;;;;;18.67;11.30;;;;;;;3.61;100.00;101461.72;5079566;28;20043;-73
2021/12/20 01:49:00;;;;;;;18.42;11.10;;;;;;;3.61;100.00;101455.38;5060079;28;20028;-73
2021/12/20 01:53:54;;;;;;;21.08;11.75;;;;;;;3.60;100.00;101454.53;5075432;28;20441;-73
2021/12/20 01:56:20;;;;;;;21.60;11.63;;;;;;;3.60;100.00;101460.03;5076392;28;20032;-73
2021/12/20 01:58:45;;;;;;;19.83;11.00;;;;;;;3.62;100.00;101463.38;5057155;28;20029;-73
2021/12/20 02:01:19;;;;;;;21.77;11.27;;;;;;;3.61;100.00;101461.72;5075305;28;20090;-73
2021/12/20 02:03:48;;;;;;;19.42;10.60;;;;;;;3.63;100.00;101459.59;5061507;28;20067;-73
2021/12/20 02:06:22;;;;;;;25.58;10.95;;;;;;;3.61;100.00;101469.94;5058810;28;20044;-73
2021/12/20 02:08:48;;;;;;;21.00;11.38;;;;;;;3.62;100.00;101459.78;5070581;28;20041;-73
2021/12/20 02:11:13;;;;;;;19.60;10.40;;;;;;;3.61;100.00;101456.22;5045839;28;20488;-73
2021/12/20 02:13:40;;;;;;;22.05;11.27;;;;;;;3.60;100.00;101451.78;5044262;28;20464;-73
2021/12/20 02:16:06;;;;;;;21.25;11.50;;;;;;;3.62;100.00;101451.56;5043312;28;20082;-73
2021/12/20 02:18:31;;;;;;;20.88;11.85;;;;;;;3.58;100.00;101457.50;5039978;28;20025;-74
2021/12/20 02:20:57;;;;;;;20.35;11.52;;;;;;;3.57;100.00;101455.00;5027642;28;20497;-73
2021/12/20 02:23:23;;;;;;;23.17;12.70;;;;;;;3.57;100.00;101450.34;5011719;28;20598;-74
2021/12/20 02:25:49;;;;;;;20.80;11.93;;;;;;;3.55;100.00;101440.63;5026035;28;20024;-74
2021/12/20 02:28:16;;;;;;;20.25;11.52;;;;;;;3.57;100.00;101444.00;5040403;28;20028;-74
2021/12/20 02:36:51;;;;;;;22.42;11.88;;;;;;;3.55;100.00;101435.16;5054390;28;20044;-74
2021/12/20 02:38:51;;;;;;;18.58;10.57;;;;;;;3.51;100.00;101445.75;5041441;28;20025;-74
2021/12/20 02:41:20;;;;;;;21.10;11.40;;;;;;;3.49;100.00;101445.13;5019054;28;20028;-74
2021/12/20 02:44:00;;;;;;;18.00;10.25;;;;;;;3.47;100.00;101441.75;5039830;28;20032;-74
2021/12/20 02:49:03;;;;;;;21.38;11.43;;;;;;;3.43;100.00;101446.03;5041809;28;20027;-73
2021/12/20 02:51:28;;;;;;;21.50;11.48;;;;;;;3.42;100.00;101436.09;5021701;28;20025;-73
2021/12/20 02:53:55;;;;;;;18.08;11.05;;;;;;;3.39;100.00;101441.19;5025401;28;20044;-73
2021/12/20 02:56:20;;;;;;;21.70;12.02;;;;;;;3.39;100.00;101443.94;5041096;28;20114;-73
2021/12/20 02:58:46;;;;;;;23.63;12.48;;;;;;;3.36;100.00;101432.31;5023954;28;20033;-73
2021/12/20 03:01:11;;;;;;;23.80;12.93;;;;;;;3.37;100.00;101427.66;5033776;28;20029;-73
2021/12/20 03:03:37;;;;;;;22.35;12.77;;;;;;;3.38;100.00;101423.06;5024452;28;20027;-73
2021/12/20 03:06:18;;;;;;;23.25;12.75;;;;;;;3.38;100.00;101417.56;5004159;28;20092;-73
2021/12/20 03:08:46;;;;;;;24.55;12.93;;;;;;;3.40;100.00;101418.16;5063767;28;20035;-74
2021/12/20 03:11:11;;;;;;;23.77;13.00;;;;;;;3.42;100.00;101421.53;5041097;28;20020;-73
2021/12/20 03:13:37;;;;;;;22.63;13.15;;;;;;;3.43;100.00;101417.72;5010348;28;20029;-73
2021/12/20 03:16:03;;;;;;;23.70;12.52;;;;;;;3.41;100.00;101417.09;5031578;28;20055;-73
2021/12/20 03:18:28;;;;;;;24.65;12.75;;;;;;;3.42;100.00;101413.28;5028170;28;20025;-73
2021/12/20 03:20:54;;;;;;;24.92;14.00;;;;;;;3.42;100.00;101416.03;5026977;28;20452;-73
2021/12/20 03:23:21;;;;;;;22.55;12.73;;;;;;;3.43;100.00;101404.84;5044323;28;20020;-73
2021/12/20 03:25:46;;;;;;;25.17;12.95;;;;;;;3.45;100.00;101410.91;5014434;28;20028;-73
2021/12/20 03:28:12;;;;;;;23.67;13.68;;;;;;;3.43;100.00;101410.31;5030122;28;20024;-73
2021/12/20 03:30:37;;;;;;;21.35;12.93;;;;;;;3.42;100.00;101416.03;5033716;28;20044;-74
2021/12/20 03:33:03;;;;;;;24.65;12.63;;;;;;;3.40;100.00;101415.41;5032044;28;20444;-73
2021/12/20 03:35:28;;;;;;;24.02;13.15;;;;;;;3.37;100.00;101411.19;5070254;28;20029;-73
2021/12/20 03:37:54;;;;;;;21.60;12.45;;;;;;;3.32;100.00;101414.63;5026337;28;20546;-73
2021/12/20 03:40:19;;;;;;;21.80;13.45;;;;;;;3.31;100.00;101406.59;5059258;28;20036;-73
2021/12/20 03:42:46;;;;;;;20.58;11.50;;;;;;;3.27;100.00;101391.66;5061196;28;20024;-73
2021/12/20 03:45:13;;;;;;;22.67;12.02;;;;;;;3.24;100.00;101400.34;5045085;28;20035;-73
2021/12/20 03:47:40;;;;;;;21.83;11.70;;;;;;;3.22;100.00;101389.56;5043316;28;20040;-73
2021/12/20 03:50:06;;;;;;;19.95;10.60;;;;;;;3.21;100.00;101389.81;5014044;28;20432;-73
2021/12/20 03:52:31;;;;;;;21.80;11.38;;;;;;;3.21;100.00;101385.16;5027228;28;20393;-73
2021/12/20 03:54:59;;;;;;;20.08;11.57;;;;;;;3.19;100.00;101379.06;5044686;28;20036;-73
2021/12/20 03:57:24;;;;;;;20.85;11.18;;;;;;;3.19;100.00;101370.81;5043572;28;20528;-73
2021/12/20 03:59:52;;;;;;;18.70;10.65;;;;;;;3.15;100.00;101375.09;5056397;28;20055;-73
2021/12/20 04:02:19;;;;;;;19.10;10.18;;;;;;;3.14;100.00;101373.38;5047317;28;20032;-73
2021/12/20 04:04:45;;;;;;;18.95;11.50;;;;;;;3.16;100.00;101365.78;5041904;28;20036;-73
2021/12/20 04:07:10;;;;;;;18.52;10.05;;;;;;;3.12;100.00;101356.28;5061211;28;20032;-73
2021/12/20 04:09:36;;;;;;;19.63;9.73;;;;;;;3.12;100.00;101348.91;5059331;28;20032;-73
2021/12/20 04:12:01;;;;;;;19.30;10.10;;;;;;;3.12;100.00;101359.91;5013980;28;20037;-73
2021/12/20 04:14:27;;;;;;;20.95;11.50;;;;;;;3.09;100.00;101360.34;5033716;28;20381;-73
2021/12/20 04:16:52;;;;;;;22.50;11.80;;;;;;;3.13;100.00;101352.50;5044571;28;20075;-73
2021/12/20 04:19:18;;;;;;;21.42;11.50;;;;;;;3.09;100.00;101354.88;5029159;28;20047;-73
2021/12/20 04:21:43;;;;;;;19.85;11.95;;;;;;;3.10;100.00;101350.22;5059142;28;20032;-73
2021/12/20 04:24:09;;;;;;;23.60;12.70;;;;;;;3.09;100.00;101345.75;5030288;28;20033;-73
2021/12/20 04:26:34;;;;;;;23.23;12.98;;;;;;;3.12;100.00;101353.53;5029488;28;20090;-73
2021/12/20 04:29:00;;;;;;;22.73;12.57;;;;;;;3.13;100.00;101350.59;5044259;28;20041;-73
2021/12/20 04:31:27;;;;;;;24.65;13.40;;;;;;;3.16;100.00;101349.31;5049212;28;20047;-74
2021/12/20 04:33:53;;;;;;;23.77;13.45;;;;;;;3.13;100.00;101349.75;5049099;28;20046;-73
2021/12/20 04:36:18;;;;;;;23.80;12.73;;;;;;;3.13;100.00;101352.50;5046289;28;20461;-73
2021/12/20 04:38:44;;;;;;;22.70;11.88;;;;;;;3.09;100.00;101354.00;5045292;28;20078;-73
2021/12/20 04:41:09;;;;;;;23.08;13.40;;;;;;;3.10;100.00;101344.72;5064590;28;20019;-73
2021/12/20 04:43:35;;;;;;;21.55;11.85;;;;;;;3.08;100.00;101342.19;5047869;28;20032;-73
2021/12/20 04:46:00;;;;;;;22.58;11.18;;;;;;;3.03;100.00;101344.75;5030666;28;20619;-73
2021/12/20 04:48:26;;;;;;;22.70;12.10;;;;;;;3.00;100.00;101347.13;5064290;28;20031;-73
2021/12/20 04:50:51;;;;;;;22.50;11.88;;;;;;;3.00;100.00;101341.63;5065926;28;20024;-73
2021/12/20 04:53:17;;;;;;;22.48;11.77;;;;;;;2.95;100.00;101341.44;5047025;28;20044;-74
2021/12/20 04:55:42;;;;;;;22.17;11.95;;;;;;;2.90;100.00;101348.47;5077990;28;20032;-74
2021/12/20 04:58:08;;;;;;;24.98;12.63;;;;;;;2.88;100.00;101345.09;5057646;28;20039;-73
2021/12/20 05:00:34;;;;;;;24.05;12.68;;;;;;;2.88;100.00;101349.75;5051080;28;20082;-73
2021/12/20 05:03:00;;;;;;;22.15;12.75;;;;;;;2.87;100.00;101339.81;5061711;28;20028;-73
2021/12/20 05:05:28;;;;;;;23.48;12.68;;;;;;;2.85;100.00;101345.53;5029920;28;20403;-73
2021/12/20 05:07:54;;;;;;;27.60;13.57;;;;;;;2.82;100.00;101356.97;5034018;28;20055;-74
2021/12/20 05:10:29;;;;;;;22.85;12.60;;;;;;;2.81;100.00;101348.94;5043870;28;20030;-74
2021/12/20 05:12:58;;;;;;;23.63;12.57;;;;;;;2.78;100.00;101352.13;5045203;28;20030;-74
2021/12/20 05:15:24;;;;;;;23.65;13.00;;;;;;;2.77;100.00;101353.22;5031117;28;20031;-73
2021/12/20 05:17:50;;;;;;;24.52;12.90;;;;;;;2.74;100.00;101349.00;5045241;28;20038;-73
2021/12/20 05:20:16;;;;;;;24.55;13.50;;;;;;;2.70;100.00;101353.22;5046288;28;20111;-73
2021/12/20 05:22:42;;;;;;;23.70;13.27;;;;;;;2.69;100.00;101337.84;5042996;28;20050;-73
2021/12/20 05:25:08;;;;;;;24.45;13.60;;;;;;;2.69;100.00;101335.94;5060698;28;20469;-74
2021/12/20 05:27:34;;;;;;;24.98;14.07;;;;;;;2.68;100.00;101348.00;5027381;28;20031;-73
2021/12/20 05:30:00;;;;;;;25.05;13.32;;;;;;;2.69;100.00;101348.81;5040621;28;20040;-73
2021/12/20 05:32:32;;;;;;;25.02;13.73;;;;;;;2.67;100.00;101343.56;5062931;28;20020;-73
2021/12/20 05:34:58;;;;;;;21.88;12.77;;;;;;;2.71;100.00;101348.63;5044318;28;20040;-73
2021/12/20 05:37:24;;;;;;;25.20;13.90;;;;;;;2.74;100.00;101339.94;5063045;28;20469;-73
2021/12/20 05:39:49;;;;;;;23.67;13.07;;;;;;;2.76;100.00;101337.78;5044665;28;20132;-72
2021/12/20 05:42:15;;;;;;;22.58;12.90;;;;;;;2.77;100.00;101334.00;5063271;28;20024;-72
2021/12/20 05:44:40;;;;;;;23.33;13.52;;;;;;;2.77;100.00;101343.06;5060229;28;20059;-73
2021/12/20 05:47:06;;;;;;;23.20;13.75;;;;;;;2.77;100.00;101345.81;5046971;28;20365;-72
2021/12/20 05:49:31;;;;;;;23.85;13.63;;;;;;;2.77;100.00;101334.84;5028330;28;20020;-73
2021/12/20 05:52:02;;;;;;;26.70;13.52;;;;;;;2.75;100.00;101336.97;5035537;28;20088;-72
2021/12/20 05:54:28;;;;;;;28.02;14.27;;;;;;;2.76;100.00;101335.91;5034093;28;20034;-73
2021/12/20 05:56:54;;;;;;;27.30;15.23;;;;;;;2.76;100.00;101337.78;5046962;28;20374;-73
2021/12/20 05:59:19;;;;;;;28.15;15.40;;;;;;;2.74;100.00;101346.25;5029920;28;20024;-73
2021/12/20 06:01:45;;;;;;;26.25;15.38;;;;;;;2.75;100.00;101342.44;5043776;28;20086;-73
2021/12/20 06:04:10;;;;;;;28.90;16.08;;;;;;;2.74;100.00;101348.16;5070121;28;20127;-73
2021/12/20 06:06:36;;;;;;;27.48;15.55;;;;;;;2.76;100.00;101346.03;5063159;28;20020;-73
2021/12/20 06:09:01;;;;;;;31.38;17.05;;;;;;;2.76;100.00;101349.63;5050209;28;20025;-72
2021/12/20 06:11:27;;;;;;;31.30;17.35;;;;;;;2.76;100.00;101333.16;5053663;28;20024;-73
2021/12/20 06:13:52;;;;;;;32.33;16.75;;;;;;;2.73;100.00;101344.59;5049553;28;20039;-73
2021/12/20 06:16:18;;;;;;;30.52;17.55;;;;;;;2.72;100.00;101336.56;5061604;28;20107;-73
2021/12/20 06:18:43;;;;;;;33.17;17.30;;;;;;;2.72;100.00;101342.06;5044330;28;20424;-73
2021/12/20 06:21:09;;;;;;;34.63;17.48;;;;;;;2.71;100.00;101351.34;5043447;28;20031;-73
2021/12/20 06:23:34;;;;;;;32.83;17.52;;;;;;;2.72;100.00;101342.88;5045801;28;20024;-73
2021/12/20 06:26:00;;;;;;;35.58;17.52;;;;;;;2.74;100.00;101353.66;5038106;28;20531;-73
2021/12/20 06:28:26;;;;;;;34.15;18.10;;;;;;;2.73;100.00;101347.34;5046978;28;20028;-73
2021/12/20 06:30:51;;;;;;;34.50;17.15;;;;;;;2.77;100.00;101356.78;5040512;28;20097;-73
2021/12/20 06:33:17;;;;;;;35.47;18.50;;;;;;;2.72;100.00;101356.59;5063418;28;20036;-73
2021/12/20 06:35:42;;;;;;;35.53;18.48;;;;;;;2.73;100.00;101355.56;5049100;28;20028;-73
2021/12/20 06:38:11;;;;;;;35.17;17.92;;;;;;;2.71;100.00;101359.59;5052670;28;20023;-73
2021/12/20 06:40:36;;;;;;;38.50;19.27;;;;;;;2.72;100.00;101362.09;5071346;28;20035;-73
2021/12/20 06:43:02;;;;;;;38.15;19.20;;;;;;;2.72;100.00;101364.00;5063695;28;20027;-72
2021/12/20 06:45:30;;;;;;;34.33;18.65;;;;;;;2.74;100.00;101359.13;5064769;28;20035;-72
2021/12/20 06:47:56;;;;;;;34.10;18.90;;;;;;;2.76;100.00;101359.72;5044242;28;20079;-72
2021/12/20 06:50:22;;;;;;;36.75;18.98;;;;;;;2.77;100.00;101355.94;5056072;28;20103;-72
2021/12/20 06:52:48;;;;;;;34.25;18.27;;;;;;;2.79;100.00;101353.84;5030364;28;20486;-73
2021/12/20 06:55:14;;;;;;;34.15;19.08;;;;;;;2.82;100.00;101361.63;5075054;28;20036;-73
2021/12/20 06:57:40;;;;;;;35.75;18.55;;;;;;;2.81;100.00;101360.75;5035582;28;20047;-73
2021/12/20 07:00:06;;;;;;;34.15;18.20;;;;;;;2.82;100.00;101365.19;5034747;28;20019;-72
2021/12/20 07:02:32;;;;;;;38.10;19.42;;;;;;;2.85;100.00;101363.91;5059151;28;20027;-73
2021/12/20 07:04:57;;;;;;;35.83;19.25;;;;;;;2.81;100.00;101358.00;5061023;28;20032;-72
2021/12/20 07:07:23;;;;;;;34.38;18.23;;;;;;;2.82;100.00;101365.19;5077780;28;20031;-73
2021/12/20 07:09:48;;;;;;;34.22;18.38;;;;;;;2.84;100.00;101357.59;5077112;28;20017;-73
2021/12/20 07:12:14;;;;;;;33.65;18.08;;;;;;;2.82;100.00;101359.72;5058753;28;20028;-73
2021/12/20 07:14:40;;;;;;;34.60;18.58;;;;;;;2.84;100.00;101367.69;5076690;28;20401;-72
2021/12/20 07:17:06;;;;;;;32.20;17.13;;;;;;;2.82;100.00;101367.09;5084245;28;20027;-73
2021/12/20 07:19:31;;;;;;;32.35;17.70;;;;;;;2.82;100.00;101367.94;5082673;28;20028;-73
2021/12/20 07:21:57;;;;;;;34.03;18.35;;;;;;;2.78;100.00;101363.94;5076598;28;20078;-73
2021/12/20 07:24:22;;;;;;;31.92;17.10;;;;;;;2.79;100.00;101362.91;5106535;28;20028;-73
2021/12/20 07:26:48;;;;;;;39.67;20.10;;;;;;;2.76;100.00;101357.84;5072596;28;20482;-73
2021/12/20 07:29:13;;;;;;;37.20;17.80;;;;;;;2.77;100.00;101362.28;5075340;28;20021;-72
2021/12/20 07:31:38;;;;;;;35.95;18.30;;;;;;;2.77;100.00;101367.75;5061293;28;20055;-73
2021/12/20 07:34:07;;;;;;;38.22;18.23;;;;;;;2.76;100.00;101368.81;5053919;28;20037;-72
2021/12/20 07:36:32;;;;;;;36.83;18.75;;;;;;;2.76;100.00;101366.09;5065173;28;20035;-72
2021/12/20 07:39:00;;;;;;;35.55;17.25;;;;;;;2.75;100.00;101361.63;5025695;28;20077;-72
2021/12/20 07:41:25;;;;;;;39.05;19.15;;;;;;;2.75;100.00;101378.09;5075184;28;20028;-72
2021/12/20 07:43:50;;;;;;;36.38;17.50;;;;;;;2.75;100.00;101378.09;5037280;28;20081;-71
2021/12/20 07:46:16;;;;;;;37.92;18.52;;;;;;;2.71;100.00;101367.81;5065280;28;20479;-71
2021/12/20 07:48:42;;;;;;;39.75;17.58;;;;;;;2.73;100.00;101373.91;5078670;28;20028;-73
2021/12/20 07:51:07;;;;;;;39.90;18.63;;;;;;;2.66;100.00;101369.31;5028628;28;20107;-72
2021/12/20 07:53:33;;;;;;;40.65;19.77;;;;;;;2.65;100.00;101366.78;5039364;28;20086;-73
2021/12/20 07:55:58;;;;;;;40.30;19.63;;;;;;;2.65;100.00;101375.03;5051440;28;20033;-73
2021/12/20 07:58:24;;;;;;;40.78;19.80;;;;;;;2.63;100.00;101377.13;5050130;28;20062;-72
2021/12/20 08:00:49;;;;;;;38.85;19.92;;;;;;;2.62;100.00;101376.31;5068104;28;20133;-73
2021/12/20 08:03:15;;;;;;;39.35;19.17;;;;;;;2.62;100.00;101381.78;5033214;28;20027;-72
2021/12/20 08:05:40;;;;;;;39.72;18.52;;;;;;;2.62;100.00;101379.03;5088368;28;20020;-73
2021/12/20 08:08:06;;;;;;;39.08;19.52;;;;;;;2.62;100.00;101376.31;5061487;28;20040;-73
2021/12/20 08:10:32;;;;;;;42.78;19.65;;;;;;;2.63;100.00;101374.41;5052658;28;20020;-72
2021/12/20 08:12:57;;;;;;;42.42;19.83;;;;;;;2.61;100.00;101369.13;5046536;28;20612;-73
2021/12/20 08:15:23;;;;;;;38.58;19.63;;;;;;;2.63;100.00;101383.47;5025551;28;20659;-73
2021/12/20 08:17:49;;;;;;;42.15;20.35;;;;;;;2.65;100.00;101386.81;5041351;28;20497;-73
2021/12/20 08:20:15;;;;;;;40.25;19.35;;;;;;;2.66;100.00;101374.78;5034821;28;20032;-73
2021/12/20 08:22:40;;;;;;;42.03;21.45;;;;;;;2.71;100.00;101376.03;5093019;28;20020;-73
2021/12/20 08:25:06;;;;;;;41.92;20.73;;;;;;;2.69;100.00;101389.97;5088480;28;20043;-73
2021/12/20 08:27:32;;;;;;;41.72;19.48;;;;;;;2.73;100.00;101395.84;5098986;28;20050;-73
2021/12/20 08:29:57;;;;;;;43.90;20.27;;;;;;;2.71;100.00;101385.09;5098461;28;20044;-73
2021/12/20 08:32:22;;;;;;;52.05;22.63;;;;;;;2.70;100.00;101388.88;5040453;28;20075;-73
2021/12/20 08:34:48;;;;;;;43.42;21.25;;;;;;;2.71;100.00;101396.06;5045459;28;20040;-73
2021/12/20 08:37:13;;;;;;;44.05;21.08;;;;;;;2.73;100.00;101399.44;5030388;28;20383;-73
2021/12/20 08:39:39;;;;;;;46.38;22.40;;;;;;;2.74;100.00;101408.50;5027019;28;20502;-73
2021/12/20 08:42:05;;;;;;;46.30;21.88;;;;;;;2.73;100.00;101407.69;5033968;28;20043;-73
2021/12/20 08:44:31;;;;;;;47.70;22.65;;;;;;;2.73;100.00;101404.06;5042356;28;20508;-74
2021/12/20 08:46:56;;;;;;;48.60;21.05;;;;;;;2.72;100.00;101407.88;5076777;28;20078;-74
2021/12/20 08:49:22;;;;;;;46.40;21.10;;;;;;;2.74;100.00;101401.13;5044439;28;20033;-75
2021/12/20 08:51:48;;;;;;;52.15;22.88;;;;;;;2.72;100.00;101402.41;5041519;28;20033;-74
2021/12/20 08:54:14;;;;;;;45.95;21.95;;;;;;;2.70;100.00;101402.59;5049894;28;20086;-71
2021/12/20 08:56:39;;;;;;;44.83;21.75;;;;;;;2.70;100.00;101410.84;5041058;28;20024;-72
2021/12/20 08:59:05;;;;;;;48.63;22.05;;;;;;;2.71;100.00;101407.06;5040069;28;20033;-72
2021/12/20 09:01:31;;;;;;;49.13;23.27;;;;;;;2.71;100.00;101403.47;5056660;28;20044;-71
2021/12/20 09:03:57;;;;;;;49.53;23.02;;;;;;;2.72;100.00;101400.50;5044296;28;20047;-72
2021/12/20 09:06:24;;;;;;;52.85;23.10;;;;;;;2.69;100.00;101404.50;5044190;28;20034;-71
2021/12/20 09:08:53;;;;;;;53.22;24.20;;;;;;;2.72;100.00;101403.22;5010742;28;20043;-72
2021/12/20 09:11:19;;;;;;;53.63;24.77;;;;;;;2.72;100.00;101407.88;5044249;28;20036;-72
2021/12/20 09:13:44;;;;;;;54.05;25.80;;;;;;;2.72;100.00;101400.50;5034798;28;20055;-71
2021/12/20 09:16:09;;;;;;;51.70;24.30;;;;;;;2.74;100.00;101400.28;5033791;28;20025;-71
2021/12/20 09:18:35;;;;;;;49.53;23.75;;;;;;;2.77;100.00;101400.69;5066412;28;20458;-72
2021/12/20 09:21:00;;;;;;;48.53;23.23;;;;;;;2.76;100.00;101399.00;5040898;28;20047;-72
2021/12/20 09:23:29;;;;;;;52.45;25.38;;;;;;;2.79;100.00;101392.25;5040663;28;20033;-72
2021/12/20 09:25:54;;;;;;;49.28;24.30;;;;;;;2.83;100.00;101407.19;5043414;28;20032;-71
2021/12/20 09:28:20;;;;;;;48.42;23.08;;;;;;;2.83;100.00;101408.00;5042588;28;20024;-71
2021/12/20 09:30:46;;;;;;;44.78;21.08;;;;;;;2.84;100.00;101401.50;5020566;28;20040;-72
2021/12/20 09:33:12;;;;;;;52.15;23.42;;;;;;;2.82;100.00;101408.25;5012861;28;20125;-71
2021/12/20 09:35:38;;;;;;;50.63;23.92;;;;;;;2.81;100.00;101412.03;5014797;28;20048;-71
2021/12/20 09:38:06;;;;;;;52.25;23.73;;;;;;;2.80;100.00;101411.19;5028861;28;20036;-71
2021/12/20 09:40:36;;;;;;;48.97;24.73;;;;;;;2.80;100.00;101416.69;5054180;28;20118;-72
2021/12/20 09:43:04;;;;;;;45.17;23.75;;;;;;;2.80;100.00;101415.84;5050694;28;20036;-72
2021/12/20 09:45:30;;;;;;;52.50;25.48;;;;;;;2.79;100.00;101423.25;5010541;28;20056;-72
2021/12/20 09:47:55;;;;;;;47.28;23.73;;;;;;;2.82;100.00;101421.97;5020893;28;20024;-72
2021/12/20 09:50:21;;;;;;;47.35;24.42;;;;;;;2.84;100.00;101434.41;5036494;28;20052;-72
2021/12/20 09:52:47;;;;;;;49.20;24.45;;;;;;;2.86;100.00;101432.25;5028756;28;20036;-72
2021/12/20 09:55:14;;;;;;;50.63;25.10;;;;;;;2.89;100.00;101425.50;5029054;28;20724;-72
2021/12/20 09:57:41;;;;;;;50.78;25.23;;;;;;;2.91;100.00;101424.22;5033380;28;20059;-72
2021/12/20 10:00:08;;;;;;;50.88;24.50;;;;;;;2.92;100.00;101422.31;5030756;28;20103;-72
2021/12/20 10:02:33;;;;;;;53.45;26.88;;;;;;;2.95;100.00;101421.03;5032178;28;20047;-72
2021/12/20 10:04:59;;;;;;;51.00;25.45;;;;;;;2.98;100.00;101429.69;5040942;28;20661;-73
2021/12/20 10:07:26;;;;;;;50.08;25.20;;;;;;;3.01;100.00;101433.84;5024895;28;20037;-74
2021/12/20 10:09:59;;;;;;;47.38;24.58;;;;;;;3.03;100.00;101429.00;5055017;28;20432;-74
2021/12/20 10:12:26;;;;;;;47.90;24.95;;;;;;;3.09;100.00;101428.09;5065903;28;20028;-73
2021/12/20 10:15:06;;;;;;;54.50;27.02;;;;;;;3.09;100.00;101433.59;5046491;28;20057;-74
2021/12/20 10:17:52;;;;;;;50.97;26.77;;;;;;;3.09;100.00;101441.81;5061439;28;20066;-73
2021/12/20 10:20:22;;;;;;;50.88;26.77;;;;;;;3.12;100.00;101449.63;5079374;28;20056;-73
2021/12/20 10:22:47;;;;;;;49.00;26.30;;;;;;;3.12;100.00;101441.38;5022522;28;20124;-73
2021/12/20 10:25:29;;;;;;;49.20;25.55;;;;;;;3.14;100.00;101431.03;5059274;28;20036;-73
2021/12/20 10:28:08;;;;;;;51.00;26.35;;;;;;;3.16;100.00;101430.81;5033742;28;20039;-73
2021/12/20 10:30:39;;;;;;;49.97;27.67;;;;;;;3.16;100.00;101430.81;5085537;28;20036;-73
2021/12/20 10:33:07;;;;;;;53.40;27.52;;;;;;;3.16;100.00;101426.16;5061745;28;20451;-73
2021/12/20 10:35:38;;;;;;;49.72;26.48;;;;;;;3.16;100.00;101423.41;5095404;28;20034;-73
2021/12/20 10:38:28;;;;;;;48.85;26.90;;;;;;;3.17;100.00;101425.09;5062636;28;20111;-73
2021/12/20 10:41:00;;;;;;;50.65;27.02;;;;;;;3.18;100.00;101423.22;5079971;28;20067;-73
2021/12/20 10:43:28;;;;;;;52.50;26.75;;;;;;;3.20;100.00;101427.38;5094779;28;20036;-73
2021/12/20 10:45:54;;;;;;;53.50;27.92;;;;;;;3.23;100.00;101426.09;5078253;28;20030;-73
2021/12/20 10:48:20;;;;;;;52.08;27.90;;;;;;;3.21;100.00;101418.09;5078063;28;23777;-73
2021/12/20 10:50:46;;;;;;;49.40;27.10;;;;;;;3.22;100.00;101414.28;5078544;28;20074;-73
2021/12/20 10:53:25;;;;;;;55.83;28.42;;;;;;;3.24;100.00;101419.56;5075010;28;20384;-73
2021/12/20 10:55:55;;;;;;;52.85;26.73;;;;;;;3.28;100.00;101409.81;5069321;28;20046;-72
2021/12/20 10:58:29;;;;;;;52.92;28.10;;;;;;;3.28;100.00;101418.88;5078126;28;20032;-72
2021/12/20 11:01:02;;;;;;;49.83;27.05;;;;;;;3.28;100.00;101407.91;5077737;28;20038;-73
2021/12/20 11:03:35;;;;;;;50.15;27.17;;;;;;;3.31;100.00;101403.88;5092369;28;20035;-73
2021/12/20 11:11:18;;;;;;;50.17;26.42;;;;;;;3.34;100.00;101397.91;5081379;28;20084;-72
2021/12/20 11:13:43;;;;;;;49.03;28.02;;;;;;;3.33;100.00;101408.06;5045099;28;20020;-72
2021/12/20 11:16:32;;;;;;;48.28;26.75;;;;;;;3.34;100.00;101407.03;5075332;28;20023;-73
2021/12/20 11:19:07;;;;;;;51.33;27.20;;;;;;;3.36;100.00;101413.09;5060725;28;20028;-72
2021/12/20 11:21:34;;;;;;;44.60;26.23;;;;;;;3.39;100.00;101411.81;5063498;28;20040;-74
2021/12/20 11:23:59;;;;;;;51.00;28.25;;;;;;;3.41;100.00;101398.72;5040876;28;20029;-72
2021/12/20 11:26:27;;;;;;;50.78;27.92;;;;;;;3.42;100.00;101400.38;5075301;28;20537;-72